createdAt,value
2023-05-06T00:02:07.234Z,14.10
2023-05-06T00:04:34.273Z,14.10
2023-05-06T00:07:01.731Z,14.10
2023-05-06T00:09:28.579Z,14.00
2023-05-06T00:11:55.419Z,14.00
2023-05-06T00:14:24.381Z,14.00
2023-05-06T00:16:51.304Z,14.00
2023-05-06T00:19:18.185Z,14.00
2023-05-06T00:21:48.006Z,13.90
2023-05-06T00:24:14.997Z,13.90
2023-05-06T00:26:41.803Z,13.90
2023-05-06T00:29:08.707Z,13.90
2023-05-06T00:31:35.780Z,13.90
2023-05-06T00:34:02.684Z,13.90
2023-05-06T00:36:30.060Z,13.90
2023-05-06T00:38:56.946Z,13.90
2023-05-06T00:41:23.904Z,13.90
2023-05-06T00:43:50.769Z,13.90
2023-05-06T00:46:17.620Z,14.00
2023-05-06T00:48:44.701Z,14.00
2023-05-06T00:51:12.152Z,14.00
2023-05-06T00:53:39.053Z,14.00
2023-05-06T00:56:06.427Z,14.00
2023-05-06T00:58:34.234Z,13.90
2023-05-06T01:01:03.894Z,13.90
2023-05-06T01:03:31.433Z,13.90
2023-05-06T01:06:10.845Z,13.90
2023-05-06T01:08:40.006Z,13.90
2023-05-06T01:11:24.801Z,13.90
2023-05-06T01:14:02.033Z,13.80
2023-05-06T01:16:30.828Z,13.80
2023-05-06T01:18:59.036Z,13.80
2023-05-06T01:21:34.879Z,13.90
2023-05-06T01:24:02.131Z,13.90
2023-05-06T01:26:29.136Z,13.80
2023-05-06T01:28:56.398Z,13.80
2023-05-06T01:31:25.577Z,13.90
2023-05-06T01:33:52.391Z,13.90
2023-05-06T01:36:21.472Z,14.00
2023-05-06T01:38:57.846Z,13.90
2023-05-06T01:41:24.674Z,13.90
2023-05-06T01:43:51.494Z,13.90
2023-05-06T01:46:19.654Z,13.90
2023-05-06T01:48:46.929Z,13.90
2023-05-06T01:51:13.750Z,13.90
2023-05-06T01:53:41.366Z,13.90
2023-05-06T01:56:08.316Z,13.90
2023-05-06T01:58:36.018Z,13.90
2023-05-06T02:01:02.787Z,13.90
2023-05-06T02:03:29.768Z,13.90
2023-05-06T02:05:56.915Z,13.90
2023-05-06T02:08:25.825Z,13.80
2023-05-06T02:10:52.892Z,13.80
2023-05-06T02:13:21.112Z,13.80
2023-05-06T02:15:52.998Z,13.80
2023-05-06T02:18:21.633Z,13.70
2023-05-06T02:20:48.415Z,13.70
2023-05-06T02:23:16.210Z,13.60
2023-05-06T02:25:43.285Z,13.60
2023-05-06T02:28:10.437Z,13.60
2023-05-06T02:30:37.271Z,13.60
2023-05-06T02:33:04.169Z,13.60
2023-05-06T02:35:31.021Z,13.50
2023-05-06T02:37:57.809Z,13.50
2023-05-06T02:40:24.604Z,13.50
2023-05-06T02:42:51.392Z,13.40
2023-05-06T02:45:18.287Z,13.40
2023-05-06T02:47:45.196Z,13.30
2023-05-06T02:50:11.995Z,13.30
2023-05-06T02:52:38.982Z,13.30
2023-05-06T02:55:06.557Z,13.40
2023-05-06T02:57:33.483Z,13.40
2023-05-06T03:00:00.284Z,13.40
2023-05-06T03:02:27.237Z,13.40
2023-05-06T03:04:54.062Z,13.40
2023-05-06T03:07:21.242Z,13.40
2023-05-06T03:09:48.365Z,13.30
2023-05-06T03:12:15.345Z,13.30
2023-05-06T03:14:42.404Z,13.20
2023-05-06T03:17:09.216Z,13.20
2023-05-06T03:19:37.320Z,13.20
2023-05-06T03:22:06.139Z,13.10
2023-05-06T03:24:35.190Z,13.10
2023-05-06T03:27:04.264Z,13.10
2023-05-06T03:29:31.554Z,13.00
2023-05-06T03:32:02.069Z,13.00
2023-05-06T03:34:29.277Z,12.90
2023-05-06T03:36:57.600Z,12.90
2023-05-06T03:39:26.620Z,12.90
2023-05-06T03:41:53.521Z,12.80
2023-05-06T03:44:20.397Z,12.80
2023-05-06T03:46:47.665Z,12.70
2023-05-06T03:49:14.556Z,12.70
2023-05-06T03:51:43.917Z,12.70
2023-05-06T03:54:11.187Z,12.70
2023-05-06T03:56:38.112Z,12.70
2023-05-06T03:59:05.762Z,12.70
2023-05-06T04:01:32.593Z,12.80
2023-05-06T04:03:59.663Z,12.80
2023-05-06T04:06:27.001Z,12.80
2023-05-06T04:08:53.894Z,12.80
2023-05-06T04:11:20.800Z,12.80
2023-05-06T04:13:49.226Z,12.80
2023-05-06T04:16:19.569Z,12.70
2023-05-06T04:18:47.717Z,12.70
2023-05-06T04:21:18.330Z,12.70
2023-05-06T04:23:51.357Z,12.70
2023-05-06T04:26:22.869Z,12.70
2023-05-06T04:28:49.735Z,12.70
2023-05-06T04:31:17.336Z,12.70
2023-05-06T04:33:46.688Z,12.70
2023-05-06T04:36:20.402Z,12.70
2023-05-06T04:38:57.120Z,12.80
2023-05-06T04:41:25.770Z,12.80
2023-05-06T04:43:52.732Z,12.80
2023-05-06T04:46:23.891Z,12.90
2023-05-06T04:48:52.453Z,13.00
2023-05-06T04:51:20.895Z,13.00
2023-05-06T04:53:48.064Z,13.00
2023-05-06T04:56:14.874Z,13.00
2023-05-06T04:58:42.038Z,13.00
2023-05-06T05:01:10.248Z,12.90
2023-05-06T05:03:37.302Z,12.90
2023-05-06T05:06:05.796Z,12.90
2023-05-06T05:08:32.859Z,12.90
2023-05-06T05:10:59.825Z,12.90
2023-05-06T05:13:28.925Z,12.90
2023-05-06T05:15:57.082Z,12.90
2023-05-06T05:18:29.162Z,12.90
2023-05-06T05:21:00.265Z,12.90
2023-05-06T05:23:28.955Z,12.90
2023-05-06T05:25:55.936Z,13.00
2023-05-06T05:28:23.276Z,13.00
2023-05-06T05:30:51.086Z,13.00
2023-05-06T05:33:18.693Z,13.00
2023-05-06T05:35:46.134Z,13.10
2023-05-06T05:38:14.356Z,13.00
2023-05-06T05:40:43.273Z,13.20
2023-05-06T05:43:10.259Z,13.20
2023-05-06T05:45:41.999Z,13.20
2023-05-06T05:48:10.755Z,13.30
2023-05-06T05:50:38.197Z,13.40
2023-05-06T05:53:06.164Z,13.40
2023-05-06T05:55:35.276Z,13.40
2023-05-06T05:58:02.150Z,13.40
2023-05-06T06:00:30.269Z,13.40
2023-05-06T06:03:05.150Z,13.40
2023-05-06T06:05:32.119Z,13.50
2023-05-06T06:07:59.262Z,13.50
2023-05-06T06:10:27.510Z,13.60
2023-05-06T06:12:56.013Z,13.70
2023-05-06T06:15:26.962Z,13.70
2023-05-06T06:17:55.072Z,13.80
2023-05-06T06:20:23.052Z,13.90
2023-05-06T06:22:49.910Z,14.00
2023-05-06T06:25:16.851Z,14.00
2023-05-06T06:27:44.025Z,14.10
2023-05-06T06:30:11.717Z,14.20
2023-05-06T06:32:50.179Z,14.20
2023-05-06T06:35:17.425Z,14.30
2023-05-06T06:37:44.383Z,14.30
2023-05-06T06:40:11.997Z,14.40
2023-05-06T06:42:41.918Z,14.40
2023-05-06T06:45:28.427Z,14.50
2023-05-06T06:47:55.686Z,14.50
2023-05-06T06:50:22.538Z,14.50
2023-05-06T06:52:49.579Z,14.60
2023-05-06T06:55:16.372Z,14.60
2023-05-06T06:57:43.291Z,14.70
2023-05-06T07:00:10.611Z,14.80
2023-05-06T07:02:37.490Z,14.70
2023-05-06T07:05:04.667Z,14.80
2023-05-06T07:07:31.480Z,14.90
2023-05-06T07:09:58.450Z,14.90
2023-05-06T07:12:26.802Z,14.90
2023-05-06T07:14:53.702Z,15.10
2023-05-06T07:17:20.819Z,15.10
2023-05-06T07:19:47.724Z,15.20
2023-05-06T07:22:14.637Z,15.30
2023-05-06T07:24:41.502Z,15.40
2023-05-06T07:27:08.493Z,15.40
2023-05-06T07:29:36.740Z,15.50
2023-05-06T07:32:03.810Z,15.50
2023-05-06T07:34:30.840Z,15.60
2023-05-06T07:36:57.693Z,15.70
2023-05-06T07:39:24.488Z,15.70
2023-05-06T07:41:51.632Z,15.80
2023-05-06T07:44:18.620Z,15.80
2023-05-06T07:46:45.490Z,15.90
2023-05-06T07:49:14.859Z,15.90
2023-05-06T07:51:42.456Z,15.90
2023-05-06T07:54:09.296Z,16.00
2023-05-06T07:56:36.202Z,16.00
2023-05-06T07:59:03.215Z,16.00
2023-05-06T08:01:30.110Z,16.10
2023-05-06T08:03:57.049Z,16.10
2023-05-06T08:06:24.171Z,16.20
2023-05-06T08:08:51.038Z,16.10
2023-05-06T08:11:19.351Z,16.10
2023-05-06T08:13:47.333Z,16.10
2023-05-06T08:16:17.046Z,16.20
2023-05-06T08:18:43.961Z,16.20
2023-05-06T08:21:11.041Z,16.20
2023-05-06T08:23:37.951Z,16.20
2023-05-06T08:26:04.903Z,16.20
2023-05-06T08:28:32.428Z,16.20
2023-05-06T08:30:59.403Z,16.00
2023-05-06T08:33:26.325Z,15.90
2023-05-06T08:35:53.255Z,15.90
2023-05-06T08:38:20.130Z,15.90
2023-05-06T08:40:47.005Z,15.90
2023-05-06T08:43:14.666Z,15.90
2023-05-06T08:45:42.296Z,15.90
2023-05-06T08:48:09.580Z,15.90
2023-05-06T08:50:38.772Z,15.80
2023-05-06T08:53:05.709Z,15.70
2023-05-06T08:55:32.508Z,15.70
2023-05-06T08:57:59.333Z,15.80
2023-05-06T09:00:26.180Z,15.90
2023-05-06T09:02:53.249Z,15.90
2023-05-06T09:05:20.321Z,16.00
2023-05-06T09:07:47.138Z,16.00
2023-05-06T09:10:14.367Z,16.10
2023-05-06T09:12:41.582Z,16.10
2023-05-06T09:15:09.596Z,16.10
2023-05-06T09:17:36.897Z,16.10
2023-05-06T09:20:06.416Z,16.10
2023-05-06T09:22:33.253Z,16.10
2023-05-06T09:25:00.295Z,16.10
2023-05-06T09:27:28.309Z,16.10
2023-05-06T09:30:06.290Z,16.00
2023-05-06T09:32:39.781Z,16.00
2023-05-06T09:35:08.459Z,15.90
2023-05-06T09:37:35.943Z,15.90
2023-05-06T09:40:02.892Z,15.90
2023-05-06T09:42:30.456Z,15.90
2023-05-06T09:45:00.641Z,15.90
2023-05-06T09:47:33.617Z,15.90
2023-05-06T09:50:01.615Z,15.80
2023-05-06T09:52:28.883Z,15.90
2023-05-06T09:54:56.010Z,15.80
2023-05-06T09:57:23.016Z,15.80
2023-05-06T09:59:50.638Z,15.90
2023-05-06T10:02:17.534Z,15.90
2023-05-06T10:04:45.942Z,15.90
2023-05-06T10:07:13.723Z,15.80
2023-05-06T10:09:41.138Z,15.80
2023-05-06T10:12:08.658Z,15.70
2023-05-06T10:14:38.461Z,15.70
2023-05-06T10:17:10.511Z,15.80
2023-05-06T10:19:40.335Z,15.80
2023-05-06T10:22:27.199Z,15.80
2023-05-06T10:25:23.905Z,15.90
2023-05-06T10:27:50.869Z,15.80
2023-05-06T10:30:18.333Z,15.60
2023-05-06T10:32:45.616Z,15.50
2023-05-06T10:35:19.681Z,15.40
2023-05-06T10:37:47.691Z,15.40
2023-05-06T10:40:15.837Z,15.50
2023-05-06T10:42:42.760Z,15.50
2023-05-06T10:45:10.984Z,15.60
2023-05-06T10:47:58.959Z,15.60
2023-05-06T10:50:26.295Z,15.60
2023-05-06T10:52:55.522Z,15.60
2023-05-06T10:55:33.225Z,15.60
2023-05-06T10:58:06.382Z,15.60
2023-05-06T11:00:34.156Z,15.70
2023-05-06T11:03:08.605Z,15.80
2023-05-06T11:05:53.797Z,15.80
2023-05-06T11:08:22.730Z,15.60
2023-05-06T11:10:49.581Z,15.60
2023-05-06T11:13:20.491Z,15.60
2023-05-06T11:15:50.594Z,15.60
2023-05-06T11:18:29.470Z,15.60
2023-05-06T11:21:05.137Z,15.70
2023-05-06T11:23:49.250Z,15.70
2023-05-06T11:26:16.242Z,15.60
2023-05-06T11:28:44.202Z,15.70
2023-05-06T11:31:12.547Z,15.70
2023-05-06T11:33:45.265Z,15.60
2023-05-06T11:36:19.256Z,15.70
2023-05-06T11:38:51.247Z,15.60
2023-05-06T11:41:18.315Z,15.70
2023-05-06T11:43:52.311Z,15.60
2023-05-06T11:46:19.590Z,15.70
2023-05-06T11:48:50.413Z,15.70
2023-05-06T11:51:22.222Z,15.70
2023-05-06T11:53:49.178Z,15.70
2023-05-06T11:56:16.219Z,15.70
2023-05-06T11:58:43.076Z,15.90
2023-05-06T12:01:10.407Z,15.90
2023-05-06T12:03:37.403Z,16.00
2023-05-06T12:06:04.610Z,16.00
2023-05-06T12:08:34.842Z,15.90
2023-05-06T12:11:03.116Z,15.90
2023-05-06T12:13:30.085Z,15.90
2023-05-06T12:15:58.533Z,15.80
2023-05-06T12:18:25.608Z,15.80
2023-05-06T12:20:56.270Z,15.80
2023-05-06T12:23:23.233Z,15.80
2023-05-06T12:28:42.537Z,15.80
2023-05-06T12:31:22.227Z,15.90
2023-05-06T12:33:49.838Z,15.90
2023-05-06T12:36:17.790Z,16.00
2023-05-06T12:39:01.354Z,16.10
2023-05-06T12:41:44.448Z,16.20
2023-05-06T12:44:33.339Z,16.40
2023-05-06T12:47:07.724Z,16.40
2023-05-06T12:49:54.150Z,16.30
2023-05-06T12:52:22.545Z,16.30
2023-05-06T12:54:49.632Z,16.40
2023-05-06T12:57:16.527Z,16.50
2023-05-06T12:59:43.753Z,16.60
2023-05-06T13:02:10.644Z,16.50
2023-05-06T13:04:37.436Z,16.50
2023-05-06T13:07:04.215Z,16.50
2023-05-06T13:09:31.038Z,16.40
2023-05-06T13:11:58.578Z,16.30
2023-05-06T13:14:25.368Z,16.30
2023-05-06T13:16:52.662Z,16.20
2023-05-06T13:19:31.574Z,16.20
2023-05-06T13:21:59.035Z,16.20
2023-05-06T13:24:25.797Z,16.10
2023-05-06T13:26:52.653Z,16.00
2023-05-06T13:29:19.442Z,16.00
2023-05-06T13:31:46.331Z,16.00
2023-05-06T13:34:13.110Z,16.00
2023-05-06T13:36:39.880Z,16.00
2023-05-06T13:39:06.722Z,16.00
2023-05-06T13:41:34.352Z,16.00
2023-05-06T13:44:01.236Z,16.10
2023-05-06T13:46:28.059Z,16.20
2023-05-06T13:48:54.945Z,16.20
2023-05-06T13:51:21.788Z,16.20
2023-05-06T13:53:48.616Z,16.20
2023-05-06T13:56:15.398Z,16.10
2023-05-06T13:58:42.235Z,16.00
2023-05-06T14:01:09.002Z,15.90
2023-05-06T14:03:35.969Z,15.90
2023-05-06T14:06:02.786Z,15.90
2023-05-06T14:08:29.658Z,15.90
2023-05-06T14:10:56.380Z,15.90
2023-05-06T14:13:23.234Z,15.90
2023-05-06T14:15:50.094Z,15.90
2023-05-06T14:18:17.059Z,15.80
2023-05-06T14:20:43.807Z,15.80
2023-05-06T14:23:10.750Z,15.70
2023-05-06T14:25:37.994Z,15.60
2023-05-06T14:28:04.839Z,15.50
2023-05-06T14:30:32.374Z,15.40
2023-05-06T14:32:59.167Z,15.40
2023-05-06T14:35:26.026Z,15.50
2023-05-06T14:37:52.956Z,15.40
2023-05-06T14:40:19.818Z,15.40
2023-05-06T14:42:46.636Z,15.30
2023-05-06T14:45:13.822Z,15.20
2023-05-06T14:47:40.958Z,15.20
2023-05-06T14:50:09.342Z,15.20
2023-05-06T14:52:36.913Z,15.20
2023-05-06T14:55:05.072Z,15.20
2023-05-06T14:57:31.874Z,15.30
2023-05-06T14:59:58.814Z,15.30
2023-05-06T15:02:25.600Z,15.20
2023-05-06T15:04:52.396Z,15.10
2023-05-06T15:07:19.200Z,15.20
2023-05-06T15:09:46.005Z,15.20
2023-05-06T15:12:13.137Z,15.30
2023-05-06T15:14:40.058Z,15.40
2023-05-06T15:17:06.865Z,15.40
2023-05-06T15:19:33.910Z,15.40
2023-05-06T15:22:00.775Z,15.40
2023-05-06T15:24:27.834Z,15.40
2023-05-06T15:26:54.606Z,15.40
2023-05-06T15:29:21.399Z,15.40
2023-05-06T15:31:48.250Z,15.40
2023-05-06T15:34:15.112Z,15.30
2023-05-06T15:36:41.949Z,15.40
2023-05-06T15:39:08.823Z,15.40
2023-05-06T15:41:36.228Z,15.40
2023-05-06T15:44:03.786Z,15.40
2023-05-06T15:46:31.242Z,15.50
2023-05-06T15:49:22.337Z,15.50
2023-05-06T15:51:45.019Z,15.50
2023-05-06T15:54:11.949Z,15.40
2023-05-06T15:56:41.477Z,15.40
2023-05-06T15:59:08.735Z,15.40
2023-05-06T16:02:16.560Z,15.40
2023-05-06T16:04:23.671Z,15.50
2023-05-06T16:06:50.676Z,15.50
2023-05-06T16:09:17.479Z,15.50
2023-05-06T16:11:44.269Z,15.50
2023-05-06T16:14:11.139Z,15.50
2023-05-06T16:16:38.265Z,15.50
2023-05-06T16:19:05.311Z,15.40
2023-05-06T16:21:32.124Z,15.40
2023-05-06T16:23:59.292Z,15.40
2023-05-06T16:26:26.195Z,15.40
2023-05-06T16:28:53.758Z,15.40
2023-05-06T16:31:20.819Z,15.40
2023-05-06T16:33:47.809Z,15.40
2023-05-06T16:36:14.855Z,15.40
2023-05-06T16:38:41.737Z,15.40
2023-05-06T16:41:08.569Z,15.30
2023-05-06T16:43:35.401Z,15.30
2023-05-06T16:46:02.208Z,15.30
2023-05-06T16:48:29.132Z,15.30
2023-05-06T16:50:56.113Z,15.30
2023-05-06T16:53:22.937Z,15.30
2023-05-06T16:55:50.037Z,15.30
2023-05-06T16:58:17.062Z,15.20
2023-05-06T17:00:44.073Z,15.20
2023-05-06T17:03:11.450Z,15.20
2023-05-06T17:05:38.394Z,15.20
2023-05-06T17:08:05.600Z,15.20
2023-05-06T17:10:32.429Z,15.20
2023-05-06T17:12:59.595Z,15.20
2023-05-06T17:15:26.480Z,15.10
2023-05-06T17:17:53.492Z,15.10
2023-05-06T17:20:20.931Z,15.10
2023-05-06T17:22:48.031Z,15.20
2023-05-06T17:25:15.209Z,15.10
2023-05-06T17:27:42.130Z,15.20
2023-05-06T17:30:12.784Z,15.20
2023-05-06T17:32:40.206Z,15.20
2023-05-06T17:35:07.556Z,15.20
2023-05-06T17:37:34.773Z,15.10
2023-05-06T17:40:02.003Z,15.10
2023-05-06T17:42:29.827Z,15.10
2023-05-06T17:44:56.815Z,15.20
2023-05-06T17:47:24.029Z,15.20
2023-05-06T17:49:52.358Z,15.30
2023-05-06T17:52:19.394Z,15.20
2023-05-06T17:54:49.468Z,15.20
2023-05-06T17:57:21.363Z,15.20
2023-05-06T17:59:48.433Z,15.30
2023-05-06T18:02:15.977Z,15.30
2023-05-06T18:04:43.998Z,15.30
2023-05-06T18:07:11.654Z,15.20
2023-05-06T18:09:38.589Z,15.20
2023-05-06T18:12:05.754Z,15.20
2023-05-06T18:14:32.836Z,15.30
2023-05-06T18:16:59.725Z,15.30
2023-05-06T18:19:26.644Z,15.20
2023-05-06T18:21:53.486Z,15.20
2023-05-06T18:24:20.727Z,15.20
2023-05-06T18:26:47.522Z,15.10
2023-05-06T18:29:14.481Z,15.10
2023-05-06T18:31:41.459Z,15.10
2023-05-06T18:34:08.270Z,15.10
2023-05-06T18:36:36.439Z,15.10
2023-05-06T18:39:06.992Z,15.10
2023-05-06T18:41:33.874Z,15.10
2023-05-06T18:44:02.268Z,15.00
2023-05-06T18:46:29.121Z,15.10
2023-05-06T18:48:56.151Z,15.10
2023-05-06T18:51:22.992Z,15.10
2023-05-06T18:53:49.887Z,15.10
2023-05-06T18:56:16.974Z,15.10
2023-05-06T18:58:43.786Z,15.10
2023-05-06T19:01:10.842Z,15.00
2023-05-06T19:03:37.960Z,15.00
2023-05-06T19:06:07.580Z,14.90
2023-05-06T19:08:34.452Z,14.90
2023-05-06T19:11:01.589Z,14.90
2023-05-06T19:13:28.594Z,14.90
2023-05-06T19:15:57.056Z,14.90
2023-05-06T19:18:24.021Z,14.90
2023-05-06T19:20:51.164Z,14.90
2023-05-06T19:23:18.521Z,14.90
2023-05-06T19:25:45.402Z,14.80
2023-05-06T19:28:12.252Z,14.80
2023-05-06T19:30:39.156Z,14.80
2023-05-06T19:33:06.679Z,14.80
2023-05-06T19:35:33.660Z,14.90
2023-05-06T19:38:00.594Z,14.90
2023-05-06T19:40:31.076Z,14.90
2023-05-06T19:43:03.704Z,14.90
2023-05-06T19:45:31.240Z,15.00
2023-05-06T19:47:58.860Z,15.00
2023-05-06T19:50:27.136Z,15.00
2023-05-06T19:52:54.407Z,14.90
2023-05-06T19:55:22.325Z,14.90
2023-05-06T19:57:50.831Z,15.00
2023-05-06T20:00:20.164Z,15.00
2023-05-06T20:02:47.616Z,15.00
2023-05-06T20:05:15.249Z,15.00
2023-05-06T20:07:43.593Z,15.00
2023-05-06T20:10:13.807Z,15.00
2023-05-06T20:12:41.837Z,15.00
2023-05-06T20:15:09.898Z,15.00
2023-05-06T20:17:37.127Z,15.00
2023-05-06T20:20:09.501Z,15.00
2023-05-06T20:22:37.679Z,15.00
2023-05-06T20:25:12.049Z,15.10
2023-05-06T20:27:39.407Z,15.10
2023-05-06T20:30:09.391Z,15.00
2023-05-06T20:32:37.375Z,15.00
2023-05-06T20:35:04.687Z,15.00
2023-05-06T20:37:31.807Z,15.00
2023-05-06T20:39:58.641Z,15.00
2023-05-06T20:42:25.607Z,14.90
2023-05-06T20:44:52.495Z,14.90
2023-05-06T20:47:19.700Z,14.80
2023-05-06T20:49:46.766Z,14.70
2023-05-06T20:52:14.633Z,14.70
2023-05-06T20:54:45.061Z,14.70
2023-05-06T20:57:14.235Z,14.70
2023-05-06T20:59:41.126Z,14.70
2023-05-06T21:02:08.037Z,14.80
2023-05-06T21:04:34.897Z,14.80
2023-05-06T21:07:01.965Z,14.80
2023-05-06T21:09:28.877Z,14.70
2023-05-06T21:11:56.121Z,14.70
2023-05-06T21:14:24.857Z,14.80
2023-05-06T21:16:52.194Z,14.80
2023-05-06T21:19:19.209Z,14.80
2023-05-06T21:21:46.136Z,14.80
2023-05-06T21:24:13.213Z,14.80
2023-05-06T21:26:40.138Z,14.70
2023-05-06T21:29:07.025Z,14.70
2023-05-06T21:31:33.937Z,14.70
2023-05-06T21:34:00.803Z,14.70
2023-05-06T21:36:27.672Z,14.70
2023-05-06T21:39:20.960Z,14.70
2023-05-06T21:41:47.855Z,14.70
2023-05-06T21:44:14.673Z,14.70
2023-05-06T21:46:41.618Z,14.70
2023-05-06T21:49:08.516Z,14.80
2023-05-06T21:51:35.872Z,14.80
2023-05-06T21:54:03.057Z,14.80
2023-05-06T21:56:29.859Z,14.80
2023-05-06T21:58:56.698Z,14.80
2023-05-06T22:01:26.268Z,14.80
2023-05-06T22:03:53.953Z,14.80
2023-05-06T22:06:21.244Z,14.80
2023-05-06T22:08:48.218Z,14.80
2023-05-06T22:11:15.174Z,14.80
2023-05-06T22:13:42.077Z,14.80
2023-05-06T22:16:09.848Z,14.80
2023-05-06T22:18:41.584Z,14.80
2023-05-06T22:21:09.575Z,14.70
2023-05-06T22:23:36.605Z,14.70
2023-05-06T22:26:03.468Z,14.70
2023-05-06T22:28:30.355Z,14.80
2023-05-06T22:30:57.264Z,14.70
2023-05-06T22:33:24.117Z,14.80
2023-05-06T22:35:51.002Z,14.80
2023-05-06T22:38:17.801Z,14.80
2023-05-06T22:40:44.657Z,14.70
2023-05-06T22:43:11.470Z,14.70
2023-05-06T22:45:38.358Z,14.70
2023-05-06T22:48:05.537Z,14.60
2023-05-06T22:50:32.680Z,14.60
2023-05-06T22:53:04.876Z,14.60
2023-05-06T22:55:38.363Z,14.60
2023-05-06T22:58:05.376Z,14.50
2023-05-06T23:00:32.424Z,14.60
2023-05-06T23:02:59.456Z,14.60
2023-05-06T23:05:26.381Z,14.60
2023-05-06T23:07:53.187Z,14.50
2023-05-06T23:10:20.232Z,14.60
2023-05-06T23:12:47.160Z,14.50
2023-05-06T23:15:14.024Z,14.60
2023-05-06T23:17:40.937Z,14.60
2023-05-06T23:20:08.253Z,14.60
2023-05-06T23:22:35.660Z,14.60
2023-05-06T23:25:02.637Z,14.60
2023-05-06T23:27:29.495Z,14.60
2023-05-06T23:29:56.353Z,14.60
2023-05-06T23:32:23.137Z,14.60
2023-05-06T23:34:52.386Z,14.50
2023-05-06T23:37:19.282Z,14.60
2023-05-06T23:39:47.626Z,14.60
2023-05-06T23:42:14.544Z,14.60
2023-05-06T23:44:41.343Z,14.60
2023-05-06T23:47:08.203Z,14.60
2023-05-06T23:49:38.215Z,14.50
2023-05-06T23:52:05.017Z,14.50
2023-05-06T23:54:31.816Z,14.50
2023-05-06T23:56:58.665Z,14.40
2023-05-06T23:59:25.643Z,14.30
